Time;durP1;ratioP1;P1;durP2;ratioP2;P2;SDS_P1;SDS_P2;PMS_P1;PMS_P2;Temp;Humidity;BMP_temperature;BMP_pressure;BME280_temperature;BME280_humidity;BME280_pressure;Samples;Min_cycle;Max_cycle;Signal;HPM_P1;HPM_P2
2023/07/16 00:02:10;;;;;;;1.87;0.70;;;22.70;99.90;;;;;;1894684;74;21104;-76
2023/07/16 00:05:03;;;;;;;1.72;0.60;;;22.70;99.90;;;;;;1886818;73;21126;-79
2023/07/16 00:07:54;;;;;;;1.47;0.80;;;22.60;99.90;;;;;;1899333;74;21133;-80
2023/07/16 00:10:45;;;;;;;0.60;0.57;;;22.60;99.90;;;;;;1904271;74;21192;-82
2023/07/16 00:16:21;;;;;;;1.42;0.50;;;22.60;99.90;;;;;;1932544;72;22221;-83
2023/07/16 00:19:13;;;;;;;1.67;0.80;;;22.70;99.90;;;;;;1911621;75;21217;-83
2023/07/16 00:22:05;;;;;;;0.88;0.55;;;22.60;99.90;;;;;;1893207;75;21090;-82
2023/07/16 00:24:56;;;;;;;0.93;0.60;;;22.60;99.90;;;;;;1892743;75;21144;-80
2023/07/16 00:30:27;;;;;;;0.62;0.53;;;22.60;99.90;;;;;;1947534;72;22153;-81
2023/07/16 00:33:19;;;;;;;0.40;0.40;;;22.60;99.90;;;;;;1921889;74;21094;-79
2023/07/16 00:36:10;;;;;;;0.60;0.60;;;22.60;99.90;;;;;;1903593;74;21174;-84
2023/07/16 00:39:01;;;;;;;2.35;0.60;;;22.60;99.90;;;;;;1912804;74;21094;-83
2023/07/16 00:41:53;;;;;;;0.88;0.47;;;22.50;99.90;;;;;;1921657;74;21150;-81
2023/07/16 00:47:25;;;;;;;0.93;0.70;;;22.50;99.90;;;;;;1933689;72;22197;-81
2023/07/16 00:50:16;;;;;;;1.02;0.50;;;22.40;99.90;;;;;;1889339;75;21147;-81
2023/07/16 00:53:09;;;;;;;0.90;0.65;;;22.50;99.90;;;;;;1916249;75;21059;-82
2023/07/16 00:56:01;;;;;;;1.10;0.60;;;22.40;99.90;;;;;;1896616;75;21150;-83
2023/07/16 00:58:52;;;;;;;1.42;0.65;;;22.40;99.90;;;;;;1891014;75;21099;-81
2023/07/16 01:01:44;;;;;;;1.27;0.65;;;22.30;99.90;;;;;;1898286;75;21604;-81
2023/07/16 01:04:37;;;;;;;0.57;0.40;;;22.30;99.90;;;;;;1899143;75;21109;-82
2023/07/16 01:10:11;;;;;;;1.22;0.60;;;22.20;99.90;;;;;;1935832;72;23131;-82
2023/07/16 01:13:03;;;;;;;0.53;0.50;;;22.30;99.90;;;;;;1892490;75;21179;-81
2023/07/16 01:15:54;;;;;;;0.72;0.53;;;22.20;99.90;;;;;;1895735;75;21115;-83
2023/07/16 01:18:48;;;;;;;0.80;0.60;;;22.20;99.90;;;;;;1892441;75;21147;-80
2023/07/16 01:21:44;;;;;;;0.90;0.70;;;22.10;99.90;;;;;;1886227;75;21102;-81
2023/07/16 01:24:48;;;;;;;0.90;0.60;;;22.10;99.90;;;;;;1876211;75;21166;-81
2023/07/16 01:28:15;;;;;;;1.17;0.68;;;22.10;99.90;;;;;;1878824;75;21173;-80
2023/07/16 01:31:08;;;;;;;1.40;0.68;;;22.10;99.90;;;;;;1883599;75;21691;-80
2023/07/16 01:36:42;;;;;;;1.15;0.62;;;22.10;99.90;;;;;;1934870;72;22252;-81
2023/07/16 01:39:34;;;;;;;1.20;0.62;;;22.10;99.90;;;;;;1878960;75;21103;-83
2023/07/16 01:42:26;;;;;;;1.30;0.85;;;22.10;99.90;;;;;;1879388;75;21050;-83
2023/07/16 01:45:18;;;;;;;0.72;0.60;;;22.10;99.90;;;;;;1893144;75;21671;-82
2023/07/16 01:48:16;;;;;;;2.02;0.60;;;22.10;99.90;;;;;;1878891;75;21055;-83
2023/07/16 01:51:07;;;;;;;2.00;0.90;;;22.00;99.90;;;;;;1891164;75;21143;-82
2023/07/16 01:53:59;;;;;;;0.85;0.80;;;22.00;99.90;;;;;;1893876;75;21099;-82
2023/07/16 01:56:52;;;;;;;1.27;0.68;;;22.00;99.90;;;;;;1883678;75;21119;-83
2023/07/16 02:02:23;;;;;;;1.42;0.80;;;22.00;99.90;;;;;;1939864;72;22267;-81
2023/07/16 02:05:15;;;;;;;1.55;0.70;;;22.00;99.90;;;;;;1911243;75;21192;-81
2023/07/16 02:08:07;;;;;;;1.32;0.90;;;22.00;99.90;;;;;;1912169;75;21098;-80
2023/07/16 02:13:40;;;;;;;1.47;0.70;;;22.10;99.90;;;;;;1932407;72;22113;-82
2023/07/16 02:16:31;;;;;;;1.55;0.62;;;22.10;99.90;;;;;;1902373;75;21107;-81
2023/07/16 02:19:23;;;;;;;0.90;0.62;;;22.00;99.90;;;;;;1892838;74;21114;-80
2023/07/16 02:22:14;;;;;;;2.55;0.80;;;21.90;99.90;;;;;;1890320;75;21208;-82
2023/07/16 02:25:07;;;;;;;1.02;0.70;;;21.90;99.90;;;;;;1885461;75;21136;-81
2023/07/16 02:27:58;;;;;;;0.75;0.70;;;21.90;99.90;;;;;;1900626;75;21422;-81
2023/07/16 02:30:51;;;;;;;2.77;0.70;;;22.00;99.90;;;;;;1882299;75;21106;-82
2023/07/16 02:36:20;;;;;;;1.22;0.53;;;21.90;99.90;;;;;;1950825;72;22271;-83
2023/07/16 02:39:12;;;;;;;1.00;0.65;;;21.90;99.90;;;;;;1916923;75;21108;-82
2023/07/16 02:42:03;;;;;;;1.37;0.88;;;21.90;99.90;;;;;;1919473;73;21126;-83
2023/07/16 02:44:54;;;;;;;1.20;0.70;;;22.00;99.90;;;;;;1935609;73;21219;-82
2023/07/16 02:47:46;;;;;;;0.85;0.80;;;22.00;99.90;;;;;;1931909;73;21514;-82
2023/07/16 02:50:39;;;;;;;1.07;0.80;;;21.90;99.90;;;;;;1922498;73;21168;-81
2023/07/16 02:53:31;;;;;;;1.32;0.68;;;22.00;99.90;;;;;;1919541;73;21148;-82
2023/07/16 02:56:22;;;;;;;1.25;0.70;;;21.90;99.90;;;;;;1931080;73;21093;-81
2023/07/16 02:59:13;;;;;;;1.00;0.50;;;21.90;99.90;;;;;;1920151;73;21097;-81
2023/07/16 03:02:05;;;;;;;1.02;0.65;;;21.80;99.90;;;;;;1923704;73;21475;-83
2023/07/16 03:04:56;;;;;;;0.95;0.60;;;21.90;99.90;;;;;;1916607;75;21149;-82
2023/07/16 03:07:48;;;;;;;1.27;0.70;;;21.90;99.90;;;;;;1916257;74;21190;-82
2023/07/16 03:13:19;;;;;;;0.80;0.70;;;21.90;99.90;;;;;;1938879;72;22139;-81
2023/07/16 03:16:10;;;;;;;1.07;0.70;;;21.90;99.90;;;;;;1887043;75;21119;-82
2023/07/16 03:19:01;;;;;;;1.82;0.80;;;21.80;99.90;;;;;;1890627;75;21143;-81
2023/07/16 03:21:54;;;;;;;0.93;0.70;;;21.80;99.90;;;;;;1878957;75;21098;-81
2023/07/16 03:24:46;;;;;;;1.32;0.70;;;21.90;99.90;;;;;;1889163;75;21114;-81
2023/07/16 03:27:37;;;;;;;1.20;0.70;;;21.90;99.90;;;;;;1887019;75;21555;-82
2023/07/16 03:30:29;;;;;;;1.20;0.80;;;21.80;99.90;;;;;;1886969;75;21080;-82
2023/07/16 03:36:00;;;;;;;1.67;0.90;;;21.70;99.90;;;;;;1939717;72;22155;-81
2023/07/16 03:38:52;;;;;;;1.12;0.60;;;21.70;99.90;;;;;;1883762;75;21115;-81
2023/07/16 03:41:43;;;;;;;1.90;0.80;;;21.70;99.90;;;;;;1879326;75;21143;-81
2023/07/16 03:44:35;;;;;;;1.07;0.70;;;21.70;99.90;;;;;;1897417;75;21195;-82
2023/07/16 03:47:26;;;;;;;1.00;0.70;;;21.70;99.90;;;;;;1894254;75;21514;-82
2023/07/16 03:50:18;;;;;;;1.50;0.70;;;21.80;99.90;;;;;;1849991;77;21162;-72
2023/07/16 03:55:52;;;;;;;1.60;0.75;;;21.70;99.90;;;;;;1930233;72;22122;-71
2023/07/16 04:01:23;;;;;;;1.50;0.90;;;21.80;99.90;;;;;;1930495;72;22364;-72
2023/07/16 04:04:15;;;;;;;1.22;0.70;;;21.80;99.90;;;;;;1878567;75;21613;-71
2023/07/16 04:07:07;;;;;;;0.95;0.70;;;21.90;99.90;;;;;;1893652;75;21067;-72
2023/07/16 04:09:58;;;;;;;1.55;0.88;;;21.90;99.90;;;;;;1864062;77;21196;-72
2023/07/16 04:12:49;;;;;;;1.10;0.70;;;21.90;99.90;;;;;;1877427;75;21122;-71
2023/07/16 04:15:40;;;;;;;1.02;0.70;;;22.00;99.90;;;;;;1842187;77;21200;-71
2023/07/16 04:18:31;;;;;;;2.50;0.82;;;22.10;99.90;;;;;;1887162;73;21062;-71
2023/07/16 04:21:23;;;;;;;1.92;0.90;;;22.00;99.90;;;;;;1880868;75;21123;-71
2023/07/16 04:24:14;;;;;;;1.27;0.70;;;22.10;99.90;;;;;;1878852;75;21117;-71
2023/07/16 04:27:06;;;;;;;0.80;0.78;;;22.10;99.90;;;;;;1880614;74;21078;-71
2023/07/16 04:32:41;;;;;;;1.70;0.90;;;22.10;99.90;;;;;;1942198;72;22122;-71
2023/07/16 04:35:33;;;;;;;1.40;0.90;;;22.00;99.90;;;;;;1906119;75;21674;-71
2023/07/16 04:41:04;;;;;;;1.62;0.70;;;21.90;99.90;;;;;;1949255;72;22154;-71
2023/07/16 04:43:55;;;;;;;3.17;0.70;;;21.90;99.90;;;;;;1906303;75;21151;-71
2023/07/16 04:46:47;;;;;;;1.87;0.90;;;22.00;99.90;;;;;;1894367;75;21215;-72
2023/07/16 04:49:38;;;;;;;1.30;0.70;;;22.10;99.90;;;;;;1900272;75;21106;-72
2023/07/16 04:52:30;;;;;;;0.93;0.80;;;22.20;99.90;;;;;;1907213;75;21216;-72
2023/07/16 04:55:21;;;;;;;1.10;0.80;;;22.40;99.90;;;;;;1905828;75;21191;-72
2023/07/16 04:58:13;;;;;;;0.80;0.80;;;22.40;99.90;;;;;;1889163;75;21131;-72
2023/07/16 05:01:04;;;;;;;1.90;1.00;;;22.40;99.90;;;;;;1889210;75;21557;-72
2023/07/16 05:06:33;;;;;;;0.95;0.75;;;22.40;99.90;;;;;;1930315;72;22176;-71
2023/07/16 05:09:25;;;;;;;1.87;0.85;;;22.30;99.90;;;;;;1909775;75;21118;-71
2023/07/16 05:12:16;;;;;;;1.27;0.82;;;22.10;99.90;;;;;;1901785;75;21113;-71
2023/07/16 05:15:09;;;;;;;2.10;1.00;;;21.90;99.90;;;;;;1892980;75;21102;-71
2023/07/16 05:20:40;;;;;;;1.60;0.90;;;21.80;99.90;;;;;;1949905;72;22204;-71
2023/07/16 05:23:31;;;;;;;1.90;1.10;;;21.80;99.90;;;;;;1896700;75;21618;-71
2023/07/16 05:26:22;;;;;;;2.10;0.82;;;21.80;99.90;;;;;;1902658;75;21163;-71
2023/07/16 05:29:13;;;;;;;2.27;0.90;;;21.80;99.90;;;;;;1899782;75;21605;-71
2023/07/16 05:34:45;;;;;;;1.20;0.90;;;21.80;99.90;;;;;;1941803;72;22261;-71
2023/07/16 05:40:15;;;;;;;2.60;0.90;;;21.80;99.90;;;;;;1954669;72;22216;-71
2023/07/16 05:43:06;;;;;;;2.02;0.90;;;21.80;99.90;;;;;;1934034;73;21110;-71
2023/07/16 05:45:58;;;;;;;1.20;0.90;;;21.70;99.90;;;;;;1946955;73;21113;-71
2023/07/16 05:51:28;;;;;;;1.80;0.80;;;21.80;99.90;;;;;;1938025;72;22859;-71
2023/07/16 05:54:19;;;;;;;1.92;1.00;;;22.00;99.90;;;;;;1898827;74;21109;-71
2023/07/16 05:57:10;;;;;;;1.72;0.95;;;22.00;99.90;;;;;;1900277;75;21125;-71
2023/07/16 06:00:02;;;;;;;1.65;0.90;;;22.10;99.90;;;;;;1890138;75;21257;-71
2023/07/16 06:05:34;;;;;;;2.80;0.85;;;22.10;99.90;;;;;;1964103;72;22185;-71
2023/07/16 06:08:26;;;;;;;1.00;0.70;;;22.10;99.90;;;;;;1917903;73;21184;-71
2023/07/16 06:11:17;;;;;;;1.50;0.90;;;22.10;99.90;;;;;;1917500;75;21089;-71
2023/07/16 06:14:08;;;;;;;1.42;0.80;;;22.10;99.90;;;;;;1927974;73;21134;-71
2023/07/16 06:16:59;;;;;;;1.50;0.70;;;22.20;99.90;;;;;;1918237;73;21137;-72
2023/07/16 06:19:51;;;;;;;1.47;0.85;;;22.30;99.90;;;;;;1922544;73;21102;-71
2023/07/16 06:25:21;;;;;;;1.12;0.88;;;22.40;99.90;;;;;;1941686;72;22181;-78
2023/07/16 06:30:56;;;;;;;1.12;0.93;;;22.60;99.90;;;;;;1932282;72;22170;-78
2023/07/16 06:33:47;;;;;;;2.00;0.80;;;22.60;99.90;;;;;;1911027;75;21127;-78
2023/07/16 06:36:39;;;;;;;1.52;0.90;;;22.70;99.90;;;;;;1894143;75;21167;-78
2023/07/16 06:42:11;;;;;;;1.47;1.00;;;22.60;99.90;;;;;;1936888;72;22261;-78
2023/07/16 06:45:03;;;;;;;2.72;0.93;;;22.60;99.90;;;;;;1885806;75;21118;-78
2023/07/16 06:47:54;;;;;;;3.17;1.00;;;22.60;99.90;;;;;;1887126;75;21247;-78
2023/07/16 06:50:46;;;;;;;2.10;0.90;;;22.50;99.90;;;;;;1888752;75;21094;-78
2023/07/16 06:53:37;;;;;;;1.90;0.98;;;22.60;99.90;;;;;;1889569;75;21169;-78
2023/07/16 06:56:29;;;;;;;1.50;1.07;;;22.70;99.90;;;;;;1888208;75;21738;-78
2023/07/16 06:59:21;;;;;;;3.60;1.07;;;22.80;99.90;;;;;;1884290;75;21118;-77
2023/07/16 07:02:13;;;;;;;2.70;0.90;;;22.80;99.90;;;;;;1869240;75;21154;-78
2023/07/16 07:05:05;;;;;;;2.20;0.90;;;22.90;99.90;;;;;;1893433;75;21177;-78
2023/07/16 07:10:37;;;;;;;1.95;0.95;;;23.20;99.90;;;;;;1937958;72;22526;-78
2023/07/16 07:13:29;;;;;;;1.65;0.90;;;23.40;99.90;;;;;;1885844;75;21103;-78
2023/07/16 07:16:21;;;;;;;2.35;1.00;;;23.50;99.90;;;;;;1877762;75;21087;-78
2023/07/16 07:19:12;;;;;;;0.90;0.70;;;23.50;99.90;;;;;;1883787;75;21134;-78
2023/07/16 07:22:03;;;;;;;3.42;0.80;;;23.50;99.90;;;;;;1885188;75;22386;-78
2023/07/16 07:24:55;;;;;;;3.95;1.00;;;23.60;99.90;;;;;;1883936;75;21744;-78
2023/07/16 07:27:46;;;;;;;1.50;0.88;;;23.70;99.90;;;;;;1876261;75;21118;-78
2023/07/16 07:30:39;;;;;;;2.00;0.95;;;23.70;99.90;;;;;;1873112;75;21248;-78
2023/07/16 07:33:32;;;;;;;1.47;0.90;;;23.80;99.90;;;;;;1873599;75;21067;-78
2023/07/16 07:36:23;;;;;;;1.25;0.90;;;23.90;99.90;;;;;;1900945;75;21146;-78
2023/07/16 07:39:14;;;;;;;1.47;1.00;;;23.90;99.90;;;;;;1890861;75;21119;-78
2023/07/16 07:42:07;;;;;;;1.95;1.10;;;24.10;99.90;;;;;;1873291;75;21144;-78
2023/07/16 07:44:58;;;;;;;1.98;1.07;;;24.00;99.90;;;;;;1882767;75;21083;-78
2023/07/16 07:47:50;;;;;;;1.45;0.85;;;24.00;99.90;;;;;;1887705;75;21546;-79
2023/07/16 07:50:42;;;;;;;1.67;0.93;;;24.00;99.90;;;;;;1885998;75;21165;-78
2023/07/16 07:56:11;;;;;;;1.77;1.05;;;24.10;99.90;;;;;;1928606;72;22285;-78
2023/07/16 07:59:02;;;;;;;1.70;0.90;;;24.10;99.90;;;;;;1910459;75;21151;-79
2023/07/16 08:01:54;;;;;;;1.52;0.93;;;24.10;99.90;;;;;;1886470;75;21206;-78
2023/07/16 08:04:45;;;;;;;1.72;1.02;;;24.10;99.90;;;;;;1891945;75;21169;-78
2023/07/16 08:10:15;;;;;;;2.12;1.12;;;24.10;99.90;;;;;;1967034;72;22233;-78
2023/07/16 08:15:47;;;;;;;1.60;1.10;;;24.10;99.90;;;;;;1938194;72;22806;-78
2023/07/16 08:21:19;;;;;;;2.22;1.10;;;24.20;99.90;;;;;;1961610;72;22279;-80
2023/07/16 08:26:49;;;;;;;1.82;0.95;;;24.20;99.90;;;;;;1938620;72;22173;-78
2023/07/16 08:29:40;;;;;;;1.60;0.98;;;24.20;99.90;;;;;;1895846;75;21126;-78
2023/07/16 08:32:31;;;;;;;1.98;1.02;;;24.20;99.90;;;;;;1882345;75;21163;-78
2023/07/16 08:35:23;;;;;;;1.30;1.10;;;24.20;99.90;;;;;;1878954;75;21115;-78
2023/07/16 08:40:54;;;;;;;1.55;1.20;;;24.40;99.90;;;;;;1930277;72;22217;-79
2023/07/16 08:43:47;;;;;;;2.27;1.00;;;24.20;99.90;;;;;;1885882;75;21302;-78
2023/07/16 08:46:39;;;;;;;1.00;0.90;;;24.20;99.90;;;;;;1892383;75;21098;-78
2023/07/16 08:49:33;;;;;;;1.70;0.80;;;24.20;99.90;;;;;;1891309;75;21182;-78
2023/07/16 08:52:25;;;;;;;1.30;1.00;;;24.20;99.90;;;;;;1895095;75;21202;-78
2023/07/16 08:55:17;;;;;;;1.55;1.10;;;24.10;99.90;;;;;;1881227;75;21381;-78
2023/07/16 09:00:50;;;;;;;2.02;1.00;;;24.00;99.90;;;;;;1924551;72;22212;-78
2023/07/16 09:03:42;;;;;;;1.40;0.90;;;24.00;99.90;;;;;;1902734;74;21135;-78
2023/07/16 09:06:33;;;;;;;1.50;0.90;;;24.10;99.90;;;;;;1915478;75;21142;-78
2023/07/16 09:09:24;;;;;;;1.60;1.10;;;24.10;99.90;;;;;;1903184;75;21232;-78
2023/07/16 09:12:15;;;;;;;2.15;1.10;;;24.20;99.90;;;;;;1894447;75;21090;-77
2023/07/16 09:15:09;;;;;;;1.32;1.10;;;24.10;99.90;;;;;;1912761;74;21124;-77
2023/07/16 09:20:52;;;;;;;1.77;1.30;;;24.20;99.90;;;;;;1954177;72;22304;-80
2023/07/16 09:26:22;;;;;;;1.30;1.00;;;24.30;99.90;;;;;;1929633;72;22188;-77
2023/07/16 09:29:13;;;;;;;1.70;1.00;;;24.40;99.90;;;;;;1897824;75;21232;-78
2023/07/16 09:32:06;;;;;;;1.85;1.02;;;24.40;99.90;;;;;;1902222;75;21098;-78
2023/07/16 09:40:19;;;;;;;1.80;1.05;;;24.60;99.90;;;;;;1942879;72;22166;-78
2023/07/16 09:43:11;;;;;;;1.10;1.00;;;24.80;99.90;;;;;;1919558;74;21094;-78
2023/07/16 09:46:03;;;;;;;1.47;0.95;;;24.80;99.90;;;;;;1935705;73;21352;-78
2023/07/16 09:48:55;;;;;;;1.32;1.00;;;24.70;99.90;;;;;;1889018;75;21174;-78
2023/07/16 09:51:49;;;;;;;2.17;1.10;;;24.70;99.90;;;;;;1918979;73;21142;-77
2023/07/16 09:54:41;;;;;;;1.67;0.95;;;24.80;99.90;;;;;;1922949;73;21650;-77
2023/07/16 10:00:20;;;;;;;1.17;1.02;;;24.90;99.90;;;;;;1928068;72;22769;-78
2023/07/16 10:05:51;;;;;;;2.00;0.98;;;25.00;99.90;;;;;;1944574;72;22202;-78
2023/07/16 10:11:22;;;;;;;1.92;1.00;;;25.30;99.90;;;;;;1933536;72;22189;-78
2023/07/16 10:14:14;;;;;;;1.67;1.12;;;25.30;99.90;;;;;;1893621;74;22293;-79
2023/07/16 10:17:07;;;;;;;1.27;1.07;;;25.40;99.90;;;;;;1880001;75;21104;-78
2023/07/16 10:20:00;;;;;;;1.77;1.00;;;25.40;99.90;;;;;;1896897;75;21118;-78
2023/07/16 10:22:51;;;;;;;1.30;0.90;;;25.40;99.90;;;;;;1885293;75;21478;-78
2023/07/16 10:28:21;;;;;;;1.80;1.00;;;25.40;99.90;;;;;;1933083;72;22173;-79
2023/07/16 10:31:21;;;;;;;1.57;1.30;;;25.40;99.90;;;;;;1894163;74;21226;-78
2023/07/16 10:34:13;;;;;;;1.45;1.00;;;25.50;99.90;;;;;;1899854;75;21556;-79
2023/07/16 10:37:04;;;;;;;1.45;0.90;;;25.70;99.90;;;;;;1887519;75;21094;-78
2023/07/16 10:42:34;;;;;;;1.45;0.80;;;25.80;99.90;;;;;;1944034;72;22217;-81
2023/07/16 10:45:25;;;;;;;1.37;1.10;;;25.70;99.90;;;;;;1883506;75;21126;-80
2023/07/16 10:48:17;;;;;;;1.82;1.10;;;25.80;99.90;;;;;;1893956;75;21166;-79
2023/07/16 10:51:08;;;;;;;1.52;1.05;;;25.70;99.90;;;;;;1895293;75;21134;-79
2023/07/16 10:54:00;;;;;;;1.72;1.10;;;25.80;99.90;;;;;;1903325;75;21151;-79
2023/07/16 10:56:51;;;;;;;2.22;1.05;;;25.80;99.90;;;;;;1882863;75;21114;-80
2023/07/16 11:02:25;;;;;;;1.07;0.90;;;25.90;99.90;;;;;;1956419;72;22279;-79
2023/07/16 11:05:18;;;;;;;2.15;0.88;;;25.80;99.90;;;;;;1939376;73;21112;-80
2023/07/16 11:08:09;;;;;;;1.95;0.80;;;25.80;99.90;;;;;;1928124;73;21094;-80
2023/07/16 11:11:01;;;;;;;2.40;1.30;;;25.90;99.90;;;;;;1928220;73;21631;-79
2023/07/16 11:13:52;;;;;;;1.98;1.10;;;25.80;99.90;;;;;;1923889;73;21089;-81
2023/07/16 11:16:43;;;;;;;1.42;1.00;;;25.80;99.90;;;;;;1878545;76;21115;-79
2023/07/16 11:19:34;;;;;;;2.17;1.20;;;25.80;99.90;;;;;;1915487;73;21235;-79
2023/07/16 11:22:29;;;;;;;1.50;1.20;;;25.90;99.90;;;;;;1915752;73;21208;-80
2023/07/16 11:25:21;;;;;;;1.70;1.00;;;25.80;99.90;;;;;;1920884;73;21133;-80
2023/07/16 11:30:53;;;;;;;2.15;0.80;;;25.90;99.90;;;;;;1934401;72;22167;-79
2023/07/16 11:36:24;;;;;;;1.80;0.95;;;26.00;99.90;;;;;;1923539;72;22820;-79
2023/07/16 11:39:16;;;;;;;1.15;0.93;;;26.20;99.90;;;;;;1894972;73;21118;-79
2023/07/16 11:42:08;;;;;;;2.75;0.93;;;26.20;99.90;;;;;;1886691;75;21160;-79
2023/07/16 11:45:00;;;;;;;2.52;1.30;;;26.20;99.90;;;;;;1875386;75;21122;-79
2023/07/16 11:47:52;;;;;;;1.70;1.02;;;26.30;99.90;;;;;;1888694;74;21522;-79
2023/07/16 11:50:43;;;;;;;2.62;1.30;;;26.20;99.90;;;;;;1877719;75;21097;-79
2023/07/16 11:53:35;;;;;;;2.65;1.07;;;26.20;99.90;;;;;;1893781;75;21563;-79
2023/07/16 11:56:27;;;;;;;1.20;1.10;;;26.30;99.90;;;;;;1881900;74;21164;-79
2023/07/16 12:02:00;;;;;;;2.27;1.07;;;26.30;99.90;;;;;;1954191;72;22279;-79
2023/07/16 12:04:55;;;;;;;1.67;0.98;;;26.50;99.90;;;;;;1924798;73;21090;-79
2023/07/16 12:07:46;;;;;;;2.08;1.20;;;26.50;99.90;;;;;;1916622;75;21087;-79
2023/07/16 12:10:38;;;;;;;1.40;0.98;;;26.60;99.90;;;;;;1930367;73;21613;-79
2023/07/16 12:13:29;;;;;;;3.47;1.20;;;26.50;99.90;;;;;;1919210;73;21078;-79
2023/07/16 12:16:20;;;;;;;4.10;1.57;;;26.50;99.90;;;;;;1916497;75;21175;-79
2023/07/16 12:19:12;;;;;;;2.15;1.20;;;26.50;99.90;;;;;;1936652;73;21047;-79
2023/07/16 12:22:04;;;;;;;2.02;1.20;;;26.60;99.90;;;;;;1916184;73;21553;-79
2023/07/16 12:24:56;;;;;;;2.40;1.07;;;26.50;99.90;;;;;;1925471;73;21203;-79
2023/07/16 12:27:50;;;;;;;1.60;0.90;;;26.60;99.90;;;;;;1916569;75;21172;-79
2023/07/16 12:30:42;;;;;;;2.02;1.10;;;26.70;99.90;;;;;;1916899;75;21067;-78
2023/07/16 12:33:34;;;;;;;2.65;1.32;;;26.60;99.90;;;;;;1916966;75;21397;-79
2023/07/16 12:36:26;;;;;;;3.22;1.02;;;26.70;99.90;;;;;;1922726;73;21139;-79
2023/07/16 12:39:17;;;;;;;2.52;1.37;;;26.90;99.90;;;;;;1921581;73;21552;-79
2023/07/16 12:42:09;;;;;;;4.50;1.17;;;26.80;99.90;;;;;;1928067;73;21178;-79
2023/07/16 12:45:02;;;;;;;2.17;1.20;;;26.90;99.90;;;;;;1916573;75;21102;-79
2023/07/16 12:47:53;;;;;;;4.30;1.10;;;26.90;99.90;;;;;;1917000;75;21094;-80
2023/07/16 12:50:45;;;;;;;2.45;1.37;;;26.90;99.90;;;;;;1920830;73;21514;-79
2023/07/16 12:53:36;;;;;;;1.45;0.95;;;26.90;99.90;;;;;;1939456;73;21153;-79
2023/07/16 12:56:27;;;;;;;2.62;1.00;;;27.00;99.90;;;;;;1916727;75;21138;-78
2023/07/16 12:59:19;;;;;;;2.50;1.32;;;27.00;99.90;;;;;;1916868;74;21106;-79
2023/07/16 13:02:10;;;;;;;3.55;1.25;;;27.00;99.90;;;;;;1913147;74;21141;-78
2023/07/16 13:05:02;;;;;;;1.77;1.05;;;27.10;99.90;;;;;;1925946;74;21183;-79
2023/07/16 13:07:54;;;;;;;3.30;1.15;;;27.10;99.90;;;;;;1924252;74;21085;-79
2023/07/16 13:10:45;;;;;;;2.45;1.22;;;27.10;99.90;;;;;;1920784;74;21135;-78
2023/07/16 13:13:37;;;;;;;4.03;1.32;;;27.20;99.90;;;;;;1918142;74;21078;-79
2023/07/16 13:19:09;;;;;;;4.47;1.17;;;27.40;99.90;;;;;;1975523;72;22157;-78
2023/07/16 13:22:00;;;;;;;2.77;1.17;;;27.40;99.90;;;;;;1918279;74;21090;-79
2023/07/16 13:24:52;;;;;;;2.45;1.00;;;27.40;99.90;;;;;;1904516;75;21172;-79
2023/07/16 13:27:43;;;;;;;3.08;1.30;;;27.50;99.90;;;;;;1904433;75;21055;-78
2023/07/16 13:30:35;;;;;;;2.02;1.15;;;27.40;99.90;;;;;;1904591;75;21545;-79
2023/07/16 13:33:26;;;;;;;3.40;1.30;;;27.50;99.90;;;;;;1904732;75;21124;-79
2023/07/16 13:36:18;;;;;;;2.67;1.30;;;27.70;99.90;;;;;;1904548;75;21206;-79
2023/07/16 13:39:13;;;;;;;2.65;1.20;;;27.60;99.90;;;;;;1926686;74;21164;-79
2023/07/16 13:42:03;;;;;;;2.45;1.20;;;27.70;99.90;;;;;;1917273;74;21067;-78
2023/07/16 13:44:56;;;;;;;3.65;1.32;;;27.60;99.90;;;;;;1904752;75;21128;-79
2023/07/16 13:47:47;;;;;;;2.20;1.30;;;27.70;99.90;;;;;;1911951;74;21197;-79
2023/07/16 13:50:39;;;;;;;3.87;1.02;;;27.80;99.90;;;;;;1874006;75;21118;-79
2023/07/16 13:53:30;;;;;;;3.42;1.20;;;28.10;99.90;;;;;;1926418;74;21107;-78
2023/07/16 13:56:21;;;;;;;2.02;1.25;;;28.20;99.90;;;;;;1913633;74;21110;-79
2023/07/16 13:59:13;;;;;;;3.15;1.37;;;28.50;99.90;;;;;;1904358;75;21088;-79
2023/07/16 14:02:05;;;;;;;2.75;1.20;;;28.40;99.90;;;;;;1910587;74;21188;-80
2023/07/16 14:04:57;;;;;;;2.37;1.00;;;28.70;99.90;;;;;;1914399;74;21132;-79
2023/07/16 14:07:49;;;;;;;1.98;1.27;;;28.90;99.90;;;;;;1904511;75;21090;-79
2023/07/16 14:10:41;;;;;;;2.40;1.20;;;29.10;99.90;;;;;;1868348;77;21168;-79
2023/07/16 14:13:32;;;;;;;4.30;1.20;;;29.10;99.90;;;;;;1889888;75;21111;-79
2023/07/16 14:16:24;;;;;;;1.80;1.10;;;29.30;99.90;;;;;;1869971;77;21100;-80
2023/07/16 14:19:15;;;;;;;4.15;1.22;;;29.30;99.90;;;;;;1928166;74;21199;-78
2023/07/16 14:22:11;;;;;;;1.80;1.30;;;29.40;99.90;;;;;;1910206;74;21122;-79
2023/07/16 14:24:59;;;;;;;2.27;1.17;;;29.70;99.90;;;;;;1917603;74;21142;-79
2023/07/16 14:27:51;;;;;;;2.87;1.65;;;29.80;99.90;;;;;;1906766;74;21173;-79
2023/07/16 14:30:43;;;;;;;2.80;1.20;;;29.70;99.90;;;;;;1930138;74;21047;-79
2023/07/16 14:33:34;;;;;;;1.98;1.10;;;29.90;99.90;;;;;;1907617;74;21091;-79
2023/07/16 14:36:27;;;;;;;3.80;1.57;;;29.90;99.90;;;;;;1906386;75;21106;-80
2023/07/16 14:39:18;;;;;;;3.55;1.20;;;30.10;99.90;;;;;;1932194;74;21066;-80
2023/07/16 14:42:10;;;;;;;3.30;1.32;;;30.20;99.90;;;;;;1906989;75;21103;-80
2023/07/16 14:45:07;;;;;;;3.08;1.22;;;30.30;99.90;;;;;;1908410;75;21164;-81
2023/07/16 14:47:58;;;;;;;2.52;1.10;;;30.30;99.90;;;;;;1909959;75;21600;-80
2023/07/16 14:50:51;;;;;;;2.87;1.17;;;30.30;99.90;;;;;;1911023;75;21168;-80
2023/07/16 14:53:43;;;;;;;2.65;1.20;;;30.40;99.90;;;;;;1911099;75;21199;-81
2023/07/16 14:59:14;;;;;;;3.20;1.27;;;30.20;99.90;;;;;;1955318;72;22639;-80
2023/07/16 15:02:06;;;;;;;2.27;1.27;;;30.40;99.90;;;;;;1906371;75;21160;-80
2023/07/16 15:04:57;;;;;;;2.87;1.30;;;30.50;99.90;;;;;;1907503;75;21658;-80
2023/07/16 15:07:48;;;;;;;2.75;1.50;;;30.80;99.90;;;;;;1898805;75;21054;-80
2023/07/16 15:10:40;;;;;;;2.67;1.30;;;30.70;99.90;;;;;;1896567;75;21091;-79
2023/07/16 15:13:32;;;;;;;2.17;1.10;;;31.20;99.90;;;;;;1894701;75;21356;-79
2023/07/16 15:16:23;;;;;;;1.85;1.02;;;30.90;99.80;;;;;;1892074;75;21246;-79
2023/07/16 15:19:16;;;;;;;2.40;1.32;;;31.10;99.60;;;;;;1903533;75;21614;-79
2023/07/16 15:22:09;;;;;;;3.08;1.27;;;31.20;99.30;;;;;;1902409;75;21561;-81
2023/07/16 15:25:01;;;;;;;1.75;1.15;;;31.20;99.30;;;;;;1906043;75;21105;-81
2023/07/16 15:27:53;;;;;;;2.50;1.00;;;31.20;99.30;;;;;;1869633;76;21078;-78
2023/07/16 15:30:44;;;;;;;2.45;1.35;;;31.40;98.70;;;;;;1905712;75;21101;-80
2023/07/16 15:33:36;;;;;;;3.40;1.20;;;31.40;98.30;;;;;;1884302;75;21352;-80
2023/07/16 15:36:28;;;;;;;3.22;1.32;;;31.50;98.40;;;;;;1883957;75;21188;-80
2023/07/16 15:42:00;;;;;;;3.40;1.20;;;32.10;97.60;;;;;;1957182;72;22237;-80
2023/07/16 15:44:51;;;;;;;1.90;1.00;;;32.60;96.90;;;;;;1898367;75;21578;-79
2023/07/16 15:47:42;;;;;;;1.60;1.15;;;32.30;96.30;;;;;;1894566;75;21173;-79
2023/07/16 15:50:34;;;;;;;2.67;1.10;;;32.20;96.10;;;;;;1911433;75;21118;-80
2023/07/16 15:53:25;;;;;;;2.27;1.00;;;31.90;96.50;;;;;;1893684;75;21106;-80
2023/07/16 15:56:16;;;;;;;3.30;1.30;;;31.60;96.70;;;;;;1898843;75;21184;-80
2023/07/16 15:59:09;;;;;;;3.37;1.37;;;31.50;96.90;;;;;;1895099;75;21569;-80
2023/07/16 16:02:01;;;;;;;3.98;1.45;;;31.60;96.70;;;;;;1906525;75;21096;-80
2023/07/16 16:04:52;;;;;;;2.65;1.17;;;31.80;96.40;;;;;;1884151;76;21066;-80
2023/07/16 16:07:46;;;;;;;2.50;1.50;;;32.10;96.10;;;;;;1885308;75;21573;-80
2023/07/16 16:10:37;;;;;;;1.95;1.40;;;31.90;96.20;;;;;;1886294;73;21541;-79
2023/07/16 16:13:28;;;;;;;2.10;1.30;;;32.00;95.80;;;;;;1893641;73;21121;-78
2023/07/16 16:16:21;;;;;;;1.55;1.17;;;31.80;95.50;;;;;;1885102;73;21151;-79
2023/07/16 16:19:13;;;;;;;3.83;1.47;;;32.20;95.40;;;;;;1892762;75;21140;-79
2023/07/16 16:22:05;;;;;;;2.47;1.20;;;32.40;94.70;;;;;;1907199;75;21574;-79
2023/07/16 16:24:59;;;;;;;2.60;1.30;;;32.30;94.90;;;;;;1877958;75;21209;-78
2023/07/16 16:27:50;;;;;;;2.35;1.20;;;32.20;94.60;;;;;;1904985;75;21133;-79
2023/07/16 16:30:42;;;;;;;2.90;1.10;;;32.20;94.40;;;;;;1883140;75;21109;-79
2023/07/16 16:33:34;;;;;;;2.92;1.37;;;32.10;94.80;;;;;;1883190;75;21193;-79
2023/07/16 16:36:25;;;;;;;3.22;1.40;;;31.70;95.00;;;;;;1882768;76;21106;-79
2023/07/16 16:39:16;;;;;;;3.00;1.40;;;31.30;95.50;;;;;;1898920;75;21154;-79
2023/07/16 16:42:09;;;;;;;2.70;1.47;;;31.10;95.90;;;;;;1924805;74;21125;-79
2023/07/16 16:45:05;;;;;;;2.75;1.30;;;31.00;96.20;;;;;;1915611;74;21109;-79
2023/07/16 16:47:54;;;;;;;1.67;1.22;;;31.60;95.80;;;;;;1910340;74;21098;-79
2023/07/16 16:50:45;;;;;;;2.72;1.17;;;31.80;95.30;;;;;;1909684;74;21110;-80
2023/07/16 16:53:37;;;;;;;2.85;1.12;;;32.10;94.70;;;;;;1909544;74;21121;-80
2023/07/16 16:56:28;;;;;;;2.08;0.95;;;31.70;94.90;;;;;;1913360;73;21232;-80
2023/07/16 16:59:19;;;;;;;2.35;1.30;;;31.10;95.40;;;;;;1915960;73;21101;-80
2023/07/16 17:02:12;;;;;;;3.70;1.50;;;30.10;97.10;;;;;;1857440;76;21116;-79